CheckWX is a tool to help pilots better visualize weather data.  It is not intended as a substitute for an official pre-flight weather briefing.

02:34:48 UTC

PTRO METAR
Babelthuap / Koror Airport
Babelthuap Island, Palau
Current

45 mins ago

PTRO 220150Z 05011G23KT 14SM SCT016 BKN120 BKN300 28/23 A2995
Observed
Jan-22 @ 01:50 UTC
Wind
  • 050° at 11 KTS
  • Gusting to 23 KTS
Visibility
22,500 meters
Flight Rules
VFR
Cloud Levels
  • Scattered at 1,600' AGL
  • Broken at 12,000' AGL
  • Broken at 30,000' AGL
Temperature
28°C / 82°F
Dewpoint
23°C / 73°F
Heat Index
31°C / 87°F
Humidity
74%
Altimeter
29.95" Hg
Pressure
1014.22 hPa
Previous

2 hours ago

PTRO 220050Z 04012G22KT 14SM BKN015 BKN120 BKN300 28/23 A2997
Observed
Jan-22 @ 00:50 UTC
Wind
  • 040° at 12 KTS
  • Gusting to 22 KTS
Visibility
22,500 meters
Flight Rules
MVFR
Cloud Levels
  • Broken at 1,500' AGL
  • Broken at 12,000' AGL
  • Broken at 30,000' AGL
Temperature
28°C / 82°F
Dewpoint
23°C / 73°F
Heat Index
31°C / 87°F
Humidity
74%
Altimeter
29.97" Hg
Pressure
1014.92 hPa
Previous

3 hours ago

PTRO 212350Z 03010G16KT 14SM BKN015 BKN120 OVC300 28/23 A2996
Observed
Jan-21 @ 23:50 UTC
Wind
  • 030° at 10 KTS
  • Gusting to 16 KTS
Visibility
22,500 meters
Flight Rules
MVFR
Cloud Levels
  • Broken at 1,500' AGL
  • Broken at 12,000' AGL
  • Overcast at 30,000' AGL
Temperature
28°C / 82°F
Dewpoint
23°C / 73°F
Heat Index
31°C / 87°F
Humidity
74%
Altimeter
29.96" Hg
Pressure
1014.52 hPa